Main page
METAR-TAF:

METAR-TAF

Airports :

San Angelo Regional Airport

San Angelo, Texas, United States

latitude: 31-21-05N, longitude: 100-29-38W, elevation: 1916 ft

Current weather observation

The report was made 1 hour and 2 minutes ago, at 22:51 UTC
Wind 9 mph from the West/Southwest
Temperature 81°F
Humidity 32%
Pressure 29.83 in. Hg
Visibility: 10 miles
Clear sky

METAR: KSJT 302251Z 24008KT 10SM CLR 27/09 A2983 RMK AO2 SLP083 T02670094

Time: 18:53 (23:53 UTC)

Forecast

The report was made 29 minutes ago, at 23:24 UTC
Forecast valid from 31 at 00 UTC to 31 at 24 UTC
Wind 9 mph from the West/Southwest
Visibility: 6 miles
Scattered clouds at a height of 6000 ft
From 31 at 1100 UTC
Wind 10 mph from the Northwest
Visibility: 6 miles
Clear sky
From 31 at 1500 UTC
Wind 14 mph from the North
Visibility: 6 miles
Clear sky

TAF: KSJT 302324Z 3100/3124 24008KT P6SM SCT060 FM311100 31009KT P6SM SKC FM311500 36012KT P6SM SKC

Weather observations and forecasts of more than 4000 airports (METAR and TAF reports).

The available stations are represented by yellow and red dots on the map.

Hover mouse over dot to see the name of the station.

Then click to see weather observations and forecasts.

To change the map : click on the green buttons with a black cross to zoom in, on the green button with a dash to zoom out, or on the green arrows for adjacent maps.


METAR-TAF: